createdAt,value
2023-03-16T00:02:15.167Z,98591.47
2023-03-16T00:04:41.752Z,98597.56
2023-03-16T00:07:09.563Z,98593.28
2023-03-16T00:09:41.308Z,98600.13
2023-03-16T00:12:18.117Z,98593.34
2023-03-16T00:14:45.821Z,98591.63
2023-03-16T00:17:19.311Z,98577.94
2023-03-16T00:19:54.847Z,98573.63
2023-03-16T00:22:22.240Z,98553.84
2023-03-16T00:24:48.635Z,98548.69
2023-03-16T00:27:15.177Z,98553.97
2023-03-16T00:29:49.091Z,98557.41
2023-03-16T00:32:20.267Z,98531.56
2023-03-16T00:34:46.882Z,98522.13
2023-03-16T00:37:15.630Z,98527.34
2023-03-16T00:39:42.817Z,98522.28
2023-03-16T00:42:10.076Z,98521.44
2023-03-16T00:44:37.004Z,98509.44
2023-03-16T00:47:04.115Z,98484.59
2023-03-16T00:49:34.666Z,98457.13
2023-03-16T00:52:02.287Z,98431.41
2023-03-16T00:54:29.326Z,98434.03
2023-03-16T00:56:55.792Z,98416.84
2023-03-16T00:59:22.145Z,98422.94
2023-03-16T01:01:48.692Z,98407.56
2023-03-16T01:04:15.036Z,98387.84
2023-03-16T01:06:41.881Z,98385.25
2023-03-16T01:09:09.560Z,98379.38
2023-03-16T01:11:36.197Z,98377.69
2023-03-16T01:14:02.597Z,98380.28
2023-03-16T01:16:29.261Z,98387.22
2023-03-16T01:18:57.465Z,98372.69
2023-03-16T01:21:23.835Z,98373.56
2023-03-16T01:23:50.397Z,98371.81
2023-03-16T01:26:17.980Z,98362.41
2023-03-16T01:28:44.554Z,98357.31
2023-03-16T01:31:12.366Z,98355.63
2023-03-16T01:33:38.983Z,98369.47
2023-03-16T01:36:10.349Z,98368.66
2023-03-16T01:38:36.719Z,98369.59
2023-03-16T01:41:03.661Z,98369.69
2023-03-16T01:43:31.275Z,98373.97
2023-03-16T01:46:06.877Z,98367.16
2023-03-16T01:49:08.869Z,98368.94
2023-03-16T01:51:54.475Z,98382.72
2023-03-16T01:54:26.153Z,98387.88
2023-03-16T01:57:12.930Z,98376.72
2023-03-16T01:59:45.492Z,98390.47
2023-03-16T02:02:11.852Z,98381.94
2023-03-16T02:05:07.225Z,98381.94
2023-03-16T02:07:35.750Z,98390.50
2023-03-16T02:10:02.700Z,98404.22
2023-03-16T02:12:29.473Z,98411.13
2023-03-16T02:14:56.092Z,98416.31
2023-03-16T02:17:27.858Z,98441.28
2023-03-16T02:19:57.487Z,98431.84
2023-03-16T02:22:25.065Z,98438.69
2023-03-16T02:24:52.873Z,98438.72
2023-03-16T02:27:51.870Z,98445.63
2023-03-16T02:30:19.004Z,98459.34
2023-03-16T02:32:46.504Z,98455.91
2023-03-16T02:35:13.208Z,98461.09
2023-03-16T02:37:40.079Z,98471.44
2023-03-16T02:40:21.613Z,98468.03
2023-03-16T02:43:19.153Z,98458.59
2023-03-16T02:45:45.492Z,98456.88
2023-03-16T02:48:18.266Z,98443.97
2023-03-16T02:50:47.264Z,98431.09
2023-03-16T02:53:14.279Z,98432.00
2023-03-16T02:55:40.706Z,98423.41
2023-03-16T02:58:07.268Z,98414.91
2023-03-16T03:00:33.620Z,98418.34
2023-03-16T03:03:00.214Z,98423.53
2023-03-16T03:05:26.648Z,98420.13
2023-03-16T03:07:53.008Z,98415.88
2023-03-16T03:10:19.990Z,98415.88
2023-03-16T03:12:49.370Z,98413.44
2023-03-16T03:15:16.710Z,98413.44
2023-03-16T03:17:43.160Z,98415.13
2023-03-16T03:20:18.309Z,98409.97
2023-03-16T03:22:45.991Z,98422.91
2023-03-16T03:25:14.042Z,98417.81
2023-03-16T03:27:42.463Z,98410.97
2023-03-16T03:30:13.575Z,98403.25
2023-03-16T03:32:40.559Z,98399.84
2023-03-16T03:35:07.626Z,98403.31
2023-03-16T03:37:34.260Z,98398.16
2023-03-16T03:40:00.686Z,98375.03
2023-03-16T03:42:27.264Z,98355.25
2023-03-16T03:44:53.846Z,98357.81
2023-03-16T03:47:20.816Z,98355.25
2023-03-16T03:49:47.179Z,98375.78
2023-03-16T03:52:13.582Z,98381.84
2023-03-16T03:54:40.117Z,98387.09
2023-03-16T03:57:06.575Z,98383.63
2023-03-16T03:59:33.118Z,98385.31
2023-03-16T04:01:59.879Z,98380.97
2023-03-16T04:04:26.385Z,98381.06
2023-03-16T04:06:53.122Z,98372.47
2023-03-16T04:09:19.670Z,98366.41
2023-03-16T04:11:46.016Z,98363.88
2023-03-16T04:14:12.566Z,98348.44
2023-03-16T04:16:39.013Z,98354.44
2023-03-16T04:19:05.424Z,98375.81
2023-03-16T04:21:31.877Z,98375.00
2023-03-16T04:23:58.245Z,98388.66
2023-03-16T04:26:25.580Z,98394.63
2023-03-16T04:28:52.907Z,98403.19
2023-03-16T04:31:19.345Z,98410.88
2023-03-16T04:33:46.069Z,98406.53
2023-03-16T04:36:12.539Z,98428.84
2023-03-16T04:38:38.944Z,98430.66
2023-03-16T04:41:05.642Z,98423.75
2023-03-16T04:43:34.606Z,98425.41
2023-03-16T04:46:01.779Z,98425.47
2023-03-16T04:48:28.976Z,98425.41
2023-03-16T04:50:55.522Z,98432.34
2023-03-16T04:53:22.083Z,98441.84
2023-03-16T04:55:48.427Z,98428.19
2023-03-16T04:58:15.012Z,98417.91
2023-03-16T05:00:41.563Z,98405.84
2023-03-16T05:03:10.765Z,98404.09
2023-03-16T05:05:38.579Z,98417.78
2023-03-16T05:08:08.762Z,98417.78
2023-03-16T05:10:35.189Z,98426.41
2023-03-16T05:13:01.577Z,98435.75
2023-03-16T05:15:28.018Z,98439.16
2023-03-16T05:17:55.863Z,98454.63
2023-03-16T05:20:22.452Z,98458.03
2023-03-16T05:22:48.870Z,98470.88
2023-03-16T05:25:16.055Z,98483.72
2023-03-16T05:27:46.916Z,98500.00
2023-03-16T05:30:13.769Z,98521.38
2023-03-16T05:32:40.239Z,98526.47
2023-03-16T05:35:07.187Z,98543.66
2023-03-16T05:37:34.700Z,98560.75
2023-03-16T05:40:01.509Z,98577.03
2023-03-16T05:42:27.960Z,98586.44
2023-03-16T05:44:54.444Z,98574.47
2023-03-16T05:47:20.963Z,98587.31
2023-03-16T05:49:47.637Z,98593.16
2023-03-16T05:52:14.020Z,98612.94
2023-03-16T05:54:40.404Z,98665.09
2023-03-16T05:57:08.156Z,98685.53
2023-03-16T05:59:34.586Z,98704.34
2023-03-16T06:02:00.933Z,98711.16
2023-03-16T06:04:27.381Z,98723.13
2023-03-16T06:06:53.861Z,98730.81
2023-03-16T06:09:20.202Z,98738.53
2023-03-16T06:11:46.744Z,98727.38
2023-03-16T06:14:13.080Z,98712.81
2023-03-16T06:16:39.513Z,98689.63
2023-03-16T06:19:06.127Z,98683.56
2023-03-16T06:21:32.545Z,98673.34
2023-03-16T06:23:59.006Z,98681.88
2023-03-16T06:26:25.396Z,98693.75
2023-03-16T06:28:51.756Z,98724.47
2023-03-16T06:31:18.356Z,98777.44
2023-03-16T06:33:44.749Z,98789.34
2023-03-16T06:36:11.809Z,98799.63
2023-03-16T06:38:38.398Z,98797.81
2023-03-16T06:41:05.286Z,98777.19
2023-03-16T06:43:31.623Z,98780.44
2023-03-16T06:45:59.095Z,98746.84
2023-03-16T06:48:25.489Z,98740.69
2023-03-16T06:50:51.912Z,98745.66
2023-03-16T06:53:18.514Z,98808.84
2023-03-16T06:55:44.901Z,98854.09
2023-03-16T06:58:11.741Z,98928.44
2023-03-16T07:00:38.137Z,98972.91
2023-03-16T07:03:04.532Z,99012.25
2023-03-16T07:05:31.486Z,99047.38
2023-03-16T07:07:58.342Z,99073.84
2023-03-16T07:10:25.353Z,99099.56
2023-03-16T07:12:51.716Z,99123.50
2023-03-16T07:15:19.008Z,99131.09
2023-03-16T07:17:45.364Z,99143.03
2023-03-16T07:20:12.749Z,99125.72
2023-03-16T07:22:39.532Z,99111.03
2023-03-16T07:25:06.639Z,99117.00
2023-03-16T07:27:33.010Z,99120.28
2023-03-16T07:30:00.548Z,99121.03
2023-03-16T07:32:26.944Z,99121.91
2023-03-16T07:34:53.564Z,99142.44
2023-03-16T07:37:25.431Z,99174.16
2023-03-16T07:39:52.035Z,99150.94
2023-03-16T07:42:19.757Z,99141.41
2023-03-16T07:44:46.155Z,99156.84
2023-03-16T07:47:12.783Z,99170.47
2023-03-16T07:49:39.204Z,99196.16
2023-03-16T07:52:05.657Z,99195.22
2023-03-16T07:54:32.049Z,99203.78
2023-03-16T07:56:58.440Z,99202.91
2023-03-16T07:59:25.020Z,99204.56
2023-03-16T08:01:51.401Z,99207.97
2023-03-16T08:04:17.785Z,99199.34
2023-03-16T08:06:44.398Z,99213.09
2023-03-16T08:09:11.712Z,99237.94
2023-03-16T08:11:38.062Z,99240.38
2023-03-16T08:14:05.410Z,99230.91
2023-03-16T08:16:31.876Z,99237.75
2023-03-16T08:18:58.346Z,99275.44
2023-03-16T08:21:25.096Z,99318.41
2023-03-16T08:23:51.934Z,99300.16
2023-03-16T08:26:19.347Z,99325.88
2023-03-16T08:28:46.329Z,99351.59
2023-03-16T08:31:14.095Z,99381.66
2023-03-16T08:33:42.104Z,99396.25
2023-03-16T08:36:10.053Z,99402.19
2023-03-16T08:38:36.434Z,99433.97
2023-03-16T08:41:02.818Z,99433.84
2023-03-16T08:43:29.244Z,99534.72
2023-03-16T08:45:55.914Z,99637.31
2023-03-16T08:48:22.304Z,99689.00
2023-03-16T08:50:48.691Z,99798.50
2023-03-16T08:53:15.212Z,99847.66
2023-03-16T08:55:41.705Z,99971.88
2023-03-16T08:58:09.128Z,100032.31
2023-03-16T09:00:36.395Z,100098.78
2023-03-16T09:03:02.822Z,100078.00
2023-03-16T09:05:29.264Z,100098.66
2023-03-16T09:07:55.661Z,100160.78
2023-03-16T09:10:23.059Z,100167.59
2023-03-16T09:12:50.426Z,100219.47
2023-03-16T09:15:16.889Z,100404.56
2023-03-16T09:17:44.961Z,100385.50
2023-03-16T09:20:22.198Z,100443.47
2023-03-16T09:22:52.194Z,100533.47
2023-03-16T09:25:19.943Z,100567.16
2023-03-16T09:27:46.731Z,100534.22
2023-03-16T09:30:13.342Z,100621.59
2023-03-16T09:32:39.923Z,100556.59
2023-03-16T09:35:06.670Z,100592.94
2023-03-16T09:37:44.615Z,100712.56
2023-03-16T09:40:25.535Z,100654.47
2023-03-16T09:43:02.225Z,100636.28
2023-03-16T09:45:38.789Z,100576.44
2023-03-16T09:48:05.674Z,100561.66
2023-03-16T09:50:47.698Z,100534.69
2023-03-16T09:53:29.681Z,100540.75
2023-03-16T09:56:35.555Z,100583.09
2023-03-16T09:59:22.708Z,100636.78
2023-03-16T10:02:16.970Z,100614.13
2023-03-16T10:04:50.673Z,100598.47
2023-03-16T10:07:22.143Z,100568.03
2023-03-16T10:12:38.093Z,100507.00
2023-03-16T10:15:12.086Z,100437.56
2023-03-16T10:17:51.425Z,100629.97
2023-03-16T10:20:20.643Z,100629.75
2023-03-16T10:22:47.651Z,100680.13
2023-03-16T10:25:38.847Z,100792.19
2023-03-16T10:28:05.266Z,101113.63
2023-03-16T10:30:33.325Z,101193.56
2023-03-16T10:33:24.356Z,101246.56
2023-03-16T10:36:09.289Z,101266.50
2023-03-16T10:38:50.674Z,101265.63
2023-03-16T10:41:23.125Z,101282.13
2023-03-16T10:43:52.347Z,101280.34
2023-03-16T10:46:18.955Z,101282.06
2023-03-16T10:48:53.637Z,101282.00
2023-03-16T10:51:22.630Z,101284.63
2023-03-16T10:53:49.843Z,101270.66
2023-03-16T10:56:22.754Z,101273.16
2023-03-16T10:58:49.119Z,101273.88
2023-03-16T11:01:21.008Z,101263.31
2023-03-16T11:03:51.032Z,101263.19
2023-03-16T11:06:24.611Z,101265.00
2023-03-16T11:08:52.959Z,101265.78
2023-03-16T11:11:30.963Z,101262.06
2023-03-16T11:13:59.730Z,101262.84
2023-03-16T11:16:58.946Z,101260.13
2023-03-16T11:19:30.645Z,101250.41
2023-03-16T11:22:13.869Z,101254.81
2023-03-16T11:24:45.024Z,101233.81
2023-03-16T11:27:18.164Z,101230.00
2023-03-16T11:29:52.649Z,101213.13
2023-03-16T11:32:21.974Z,101219.81
2023-03-16T11:34:48.918Z,101219.56
2023-03-16T11:37:19.320Z,101209.13
2023-03-16T11:39:58.425Z,101207.69
2023-03-16T11:42:34.146Z,101202.84
2023-03-16T11:45:15.518Z,101204.53
2023-03-16T11:48:00.625Z,101206.06
2023-03-16T11:50:30.047Z,101213.44
2023-03-16T11:53:06.363Z,101210.06
2023-03-16T11:56:10.588Z,101196.75
2023-03-16T11:58:43.176Z,101189.78
2023-03-16T12:01:15.592Z,101187.06
2023-03-16T12:03:59.321Z,101182.91
2023-03-16T12:06:41.189Z,101174.16
2023-03-16T12:09:37.841Z,101160.63
2023-03-16T12:12:38.047Z,101163.47
2023-03-16T12:15:24.326Z,101161.41
2023-03-16T12:17:52.912Z,101158.41
2023-03-16T12:20:24.915Z,101146.78
2023-03-16T12:26:04.070Z,101155.38
2023-03-16T12:28:32.107Z,101167.97
2023-03-16T12:31:09.309Z,101150.69
2023-03-16T12:33:50.973Z,101140.84
2023-03-16T12:36:44.559Z,101149.19
2023-03-16T12:39:32.726Z,101137.03
2023-03-16T12:42:24.652Z,101138.06
2023-03-16T12:45:02.558Z,101143.59
2023-03-16T12:47:36.288Z,101129.66
2023-03-16T12:50:07.336Z,101131.63
2023-03-16T12:52:44.598Z,101125.56
2023-03-16T12:55:27.970Z,101117.63
2023-03-16T12:58:06.366Z,101120.06
2023-03-16T13:00:37.589Z,101112.81
2023-03-16T13:03:05.264Z,101102.13
2023-03-16T13:05:35.498Z,101111.44
2023-03-16T13:08:13.518Z,101107.69
2023-03-16T13:10:40.301Z,101107.16
2023-03-16T13:13:15.275Z,101094.56
2023-03-16T13:15:42.723Z,101103.00
2023-03-16T13:18:09.777Z,101107.56
2023-03-16T13:20:51.279Z,101096.66
2023-03-16T13:23:22.078Z,101086.88
2023-03-16T13:26:03.484Z,101094.59
2023-03-16T13:28:32.673Z,101086.94
2023-03-16T13:30:59.143Z,101081.31
2023-03-16T13:33:27.329Z,101064.88
2023-03-16T13:35:54.561Z,101066.13
2023-03-16T13:38:31.327Z,101061.88
2023-03-16T13:41:02.352Z,101074.41
2023-03-16T13:43:30.074Z,101060.19
2023-03-16T13:45:56.536Z,101068.06
2023-03-16T13:48:23.083Z,101058.41
2023-03-16T13:50:53.673Z,101056.88
2023-03-16T13:53:30.051Z,101043.06
2023-03-16T13:55:57.229Z,101038.06
2023-03-16T13:58:26.538Z,101031.84
2023-03-16T14:00:57.281Z,101036.44
2023-03-16T14:03:24.049Z,101041.63
2023-03-16T14:05:50.434Z,101041.41
2023-03-16T14:08:21.983Z,101042.09
2023-03-16T14:10:48.459Z,101041.19
2023-03-16T14:13:32.571Z,101045.56
2023-03-16T14:16:11.589Z,101033.56
2023-03-16T14:18:46.210Z,101031.91
2023-03-16T14:21:16.350Z,101031.38
2023-03-16T14:23:59.243Z,101014.69
2023-03-16T14:26:25.992Z,101016.59
2023-03-16T14:29:12.163Z,101007.09
2023-03-16T14:31:39.701Z,100994.03
2023-03-16T14:34:18.702Z,100985.44
2023-03-16T14:36:45.245Z,100996.13
2023-03-16T14:39:13.064Z,100990.00
2023-03-16T14:41:39.915Z,100989.88
2023-03-16T14:44:06.407Z,100991.88
2023-03-16T14:46:41.978Z,100999.88
2023-03-16T14:49:10.228Z,101004.47
2023-03-16T14:51:38.313Z,101002.03
2023-03-16T14:54:17.806Z,100996.00
2023-03-16T14:56:48.665Z,100992.28
2023-03-16T14:59:15.050Z,100976.16
2023-03-16T15:01:41.496Z,100985.44
2023-03-16T15:04:07.882Z,100980.81
2023-03-16T15:06:35.026Z,100970.59
2023-03-16T15:09:01.641Z,100956.44
2023-03-16T15:11:28.895Z,100955.09
2023-03-16T15:14:04.076Z,100953.53
2023-03-16T15:16:30.578Z,100958.94
2023-03-16T15:18:57.051Z,100950.63
2023-03-16T15:21:26.204Z,100950.88
2023-03-16T15:23:52.608Z,100957.78
2023-03-16T15:26:24.537Z,100947.59
2023-03-16T15:28:51.625Z,100948.66
2023-03-16T15:31:18.171Z,100944.22
2023-03-16T15:33:45.503Z,100948.75
2023-03-16T15:36:18.161Z,100940.25
2023-03-16T15:38:51.628Z,100942.06
2023-03-16T15:41:18.082Z,100944.69
2023-03-16T15:43:45.597Z,100948.16
2023-03-16T15:46:12.074Z,100936.66
2023-03-16T15:48:38.879Z,100935.22
2023-03-16T15:51:22.443Z,100944.84
2023-03-16T15:53:51.217Z,100932.59
2023-03-16T15:56:19.415Z,100923.84
2023-03-16T15:58:45.913Z,100921.25
2023-03-16T16:01:23.570Z,100918.00
2023-03-16T16:03:53.377Z,100911.19
2023-03-16T16:06:20.093Z,100915.72
2023-03-16T16:08:46.669Z,100905.25
2023-03-16T16:11:17.914Z,100915.88
2023-03-16T16:13:45.332Z,100900.97
2023-03-16T16:16:16.080Z,100901.13
2023-03-16T16:18:42.549Z,100896.97
2023-03-16T16:21:15.386Z,100887.41
2023-03-16T16:23:42.837Z,100897.13
2023-03-16T16:26:54.792Z,100880.66
2023-03-16T16:29:27.429Z,100879.88
2023-03-16T16:31:53.959Z,100896.50
2023-03-16T16:34:21.566Z,100897.53
2023-03-16T16:36:48.615Z,100893.28
2023-03-16T16:39:15.546Z,100889.81
2023-03-16T16:41:42.226Z,100891.66
2023-03-16T16:44:34.888Z,100896.94
2023-03-16T16:47:03.357Z,100892.59
2023-03-16T16:49:31.046Z,100880.59
2023-03-16T16:51:58.147Z,100889.31
2023-03-16T16:54:26.074Z,100890.22
2023-03-16T16:56:53.553Z,100886.03
2023-03-16T16:59:30.285Z,100880.06
2023-03-16T17:01:57.440Z,100880.19
2023-03-16T17:04:25.717Z,100875.88
2023-03-16T17:06:55.291Z,100868.97
2023-03-16T17:09:23.194Z,100870.03
2023-03-16T17:11:50.839Z,100883.94
2023-03-16T17:14:21.299Z,100881.34
2023-03-16T17:16:48.477Z,100884.97
2023-03-16T17:19:23.274Z,100886.78
2023-03-16T17:21:50.659Z,100882.47
2023-03-16T17:24:17.075Z,100879.84
2023-03-16T17:26:45.932Z,100870.28
2023-03-16T17:29:25.529Z,100863.34
2023-03-16T17:31:52.067Z,100858.16
2023-03-16T17:34:26.409Z,100857.38
2023-03-16T17:36:56.103Z,100859.09
2023-03-16T17:39:23.524Z,100854.75
2023-03-16T17:41:59.610Z,100864.44
2023-03-16T17:44:26.953Z,100862.78
2023-03-16T17:46:54.552Z,100857.63
2023-03-16T17:49:22.154Z,100853.25
2023-03-16T17:51:48.958Z,100866.31
2023-03-16T17:54:15.553Z,100849.81
2023-03-16T17:56:41.993Z,100853.31
2023-03-16T17:59:15.297Z,100862.94
2023-03-16T18:01:41.654Z,100857.75
2023-03-16T18:04:22.051Z,100862.97
2023-03-16T18:06:49.045Z,100868.25
2023-03-16T18:09:16.412Z,100858.66
2023-03-16T18:11:46.477Z,100854.41
2023-03-16T18:14:35.927Z,100850.09
2023-03-16T18:17:03.749Z,100849.22
2023-03-16T18:19:30.123Z,100853.59
2023-03-16T18:21:57.313Z,100844.03
2023-03-16T18:24:26.595Z,100850.13
2023-03-16T18:26:53.609Z,100848.50
2023-03-16T18:29:20.336Z,100862.44
2023-03-16T18:31:46.740Z,100861.59
2023-03-16T18:34:20.250Z,100859.00
2023-03-16T18:36:46.634Z,100850.34
2023-03-16T18:39:17.078Z,100843.38
2023-03-16T18:41:44.579Z,100840.75
2023-03-16T18:44:21.788Z,100844.25
2023-03-16T18:46:48.447Z,100842.53
2023-03-16T18:49:23.170Z,100844.25
2023-03-16T18:51:51.255Z,100837.34
2023-03-16T18:54:30.465Z,100839.09
2023-03-16T18:56:59.867Z,100842.56
2023-03-16T18:59:26.647Z,100839.13
2023-03-16T19:01:53.158Z,100842.59
2023-03-16T19:04:26.368Z,100840.00
2023-03-16T19:06:53.975Z,100838.25
2023-03-16T19:09:24.573Z,100832.19
2023-03-16T19:11:51.102Z,100833.97
2023-03-16T19:14:20.741Z,100823.53
2023-03-16T19:16:47.378Z,100828.75
2023-03-16T19:19:15.041Z,100825.28
2023-03-16T19:21:41.815Z,100834.88
2023-03-16T19:24:08.315Z,100820.97
2023-03-16T19:26:36.077Z,100822.75
2023-03-16T19:29:02.698Z,100818.44
2023-03-16T19:31:29.960Z,100820.22
2023-03-16T19:33:56.863Z,100812.47
2023-03-16T19:36:24.729Z,100816.84
2023-03-16T19:38:51.561Z,100811.63
2023-03-16T19:41:29.471Z,100805.59
2023-03-16T19:43:57.677Z,100803.00
2023-03-16T19:46:27.018Z,100801.28
2023-03-16T19:48:53.444Z,100801.31
2023-03-16T19:51:19.960Z,100798.75
2023-03-16T19:53:46.357Z,100797.91
2023-03-16T19:56:14.260Z,100789.28
2023-03-16T19:58:41.590Z,100800.53
2023-03-16T20:01:19.057Z,100798.81
2023-03-16T20:03:47.421Z,100797.97
2023-03-16T20:06:21.381Z,100803.19
2023-03-16T20:08:47.876Z,100799.75
2023-03-16T20:11:26.396Z,100798.03
2023-03-16T20:13:53.812Z,100792.88
2023-03-16T20:16:24.249Z,100789.41
2023-03-16T20:18:53.619Z,100782.47
2023-03-16T20:21:19.994Z,100791.13
2023-03-16T20:23:47.159Z,100779.88
2023-03-16T20:26:20.015Z,100786.84
2023-03-16T20:28:46.665Z,100779.94
2023-03-16T20:31:23.809Z,100775.59
2023-03-16T20:33:51.971Z,100775.63
2023-03-16T20:36:18.937Z,100772.16
2023-03-16T20:38:45.430Z,100766.09
2023-03-16T20:41:24.521Z,100768.69
2023-03-16T20:43:51.601Z,100758.28
2023-03-16T20:46:21.162Z,100759.16
2023-03-16T20:48:48.041Z,100755.69
2023-03-16T20:51:15.332Z,100751.31
2023-03-16T20:53:45.698Z,100753.91
2023-03-16T20:56:23.409Z,100747.81
2023-03-16T20:58:50.670Z,100753.91
2023-03-16T21:01:18.798Z,100742.66
2023-03-16T21:03:47.357Z,100751.31
2023-03-16T21:06:23.659Z,100734.84
2023-03-16T21:08:54.360Z,100733.97
2023-03-16T21:11:38.913Z,100732.25
2023-03-16T21:14:06.148Z,100737.47
2023-03-16T21:16:32.564Z,100733.16
2023-03-16T21:18:58.951Z,100720.16
2023-03-16T21:21:25.368Z,100727.94
2023-03-16T21:23:51.806Z,100725.34
2023-03-16T21:26:20.839Z,100727.94
2023-03-16T21:29:17.810Z,100723.56
2023-03-16T21:31:44.341Z,100707.97
2023-03-16T21:34:21.993Z,100711.44
2023-03-16T21:36:48.396Z,100713.16
2023-03-16T21:39:19.368Z,100714.88
2023-03-16T21:41:47.414Z,100709.69
2023-03-16T21:44:13.818Z,100699.28
2023-03-16T21:46:40.236Z,100694.13
2023-03-16T21:49:06.642Z,100694.13
2023-03-16T21:51:33.583Z,100695.84
2023-03-16T21:54:01.532Z,100681.16
2023-03-16T21:56:27.905Z,100680.28
2023-03-16T21:58:54.650Z,100662.97
2023-03-16T22:01:27.627Z,100660.38
2023-03-16T22:03:57.487Z,100649.91
2023-03-16T22:06:24.925Z,100640.38
2023-03-16T22:08:51.363Z,100626.56
2023-03-16T22:11:22.577Z,100612.69
2023-03-16T22:13:49.317Z,100583.22
2023-03-16T22:16:17.360Z,100560.72
2023-03-16T22:18:44.730Z,100521.69
2023-03-16T22:21:35.151Z,100504.38
2023-03-16T22:24:02.221Z,100469.69
2023-03-16T22:26:29.241Z,100415.94
2023-03-16T22:28:56.128Z,100364.84
2023-03-16T22:31:30.006Z,100259.16
2023-03-16T22:33:56.409Z,100248.75
2023-03-16T22:36:22.832Z,100200.16
2023-03-16T22:38:59.383Z,100166.34
2023-03-16T22:41:25.775Z,100130.03
2023-03-16T22:43:52.342Z,100113.56
2023-03-16T22:46:23.608Z,100096.22
2023-03-16T22:48:51.434Z,100033.88
2023-03-16T22:51:26.056Z,100024.31
2023-03-16T22:53:55.995Z,100002.66
2023-03-16T22:56:23.169Z,99978.44
2023-03-16T22:58:54.260Z,99968.06
2023-03-16T23:01:39.050Z,99956.81
2023-03-16T23:04:13.935Z,99935.13
2023-03-16T23:06:40.314Z,99889.28
2023-03-16T23:09:06.699Z,99903.09
2023-03-16T23:11:34.677Z,99872.72
2023-03-16T23:14:01.072Z,99824.31
2023-03-16T23:16:33.829Z,99787.84
2023-03-16T23:19:00.669Z,99795.63
2023-03-16T23:21:28.497Z,99798.19
2023-03-16T23:24:03.522Z,99801.59
2023-03-16T23:26:30.605Z,99838.72
2023-03-16T23:28:57.037Z,99824.81
2023-03-16T23:31:24.242Z,99791.94
2023-03-16T23:33:50.736Z,99828.34
2023-03-16T23:36:18.944Z,99825.72
2023-03-16T23:38:45.640Z,99820.50
2023-03-16T23:41:12.661Z,99843.00
2023-03-16T23:43:39.929Z,99791.09
2023-03-16T23:46:06.406Z,99823.22
2023-03-16T23:48:33.049Z,99822.28
2023-03-16T23:50:59.615Z,99801.50
2023-03-16T23:53:26.000Z,99798.94
2023-03-16T23:55:52.869Z,99796.34
2023-03-16T23:58:19.288Z,99815.41
